Belle Isle, Florida
Current Conditions -  °F | °C
As of 4:53 AM on Thursday 23 Oct 2014 (Local Time) from KMCO Reporting Station
Broken Clouds Broken Clouds  
Wind Chill: 63°   Ceiling: 25000
Heat Index: 63°   Visibility: 10mi
Dew Point: 58°   Wind: 8mph
Humidity: 84%   Direction: 360°N
Pressure: 29.97"   Gusts: NA
Location:  28.4861°N, 81.3274°W
Report Text: KMCO 230853Z 36007KT 10SM BKN250 17/14 A2997 RMK AO2 SLP148 T01720144 56007
Loading
Personal Weather Stations






























Interactive Weather Map
Tropical Storm Tracking
New forecast layout! Learn more

10-Day Weather Forecast

Advertisements
Track Severe Weather on mobile